Royal — WDD3653 — position and weather

sailwx.info

Track history (hours):
 
Tides and Currents Weather Stations Pressure Air Temp Water Temp Dewpoint Dewpoint Depression Visibility Wind Speed Wind Dir Waves Ship Positions

Royal

Owner: GulfMark Americas, Inc., Saint Rose, LA. More information available from US FCC via Universal Licensing System and Coast Guard Vessel Documentation Center.

Last reported at 2016-Nov-16 12:22 UTC. Time now 2016-Dec-05 12:37 UTC.
Position N 29°32' W 092°18'.
Warning: this ship's position is 19 days out of date.

Length 64 m; draft 3 m.

Type: Cargo ship. MMSI: 366964490.

Date/timePositionNaut miles runAvg speedWind from/ knotsBaromVisibWave heightAir tempDewpointWater temp
2016-Nov-16 12:22N 29°32' W 092°18'13 4.8
2016-Nov-16 09:33N 29°45' W 092°13'3 3.4
2016-Nov-16 08:34N 29°47' W 092°10'7 6.6
2016-Nov-16 07:33N 29°49' W 092°03'7 6.6
2016-Nov-16 06:33N 29°51' W 091°55'7 3.3
2016-Nov-16 04:32N 29°56' W 091°50'0 0.0
2016-Nov-16 03:23N 29°56' W 091°50'0 0.0
2016-Nov-16 02:32N 29°56' W 091°50'0 0.0
2016-Nov-16 01:32N 29°56' W 091°50'5 1.3
2016-Nov-15 21:33N 29°51' W 091°52'13 6.4
2016-Nov-15 19:33N 29°48' W 092°06'6 6.3
2016-Nov-15 18:33N 29°45' W 092°13'  
2016-Nov-13 13:33N 29°31' W 092°19'13 4.2
2016-Nov-13 10:33N 29°43' W 092°15'11 5.5
2016-Nov-13 08:33N 29°49' W 092°04'14 4.4
2016-Nov-13 05:30N 29°56' W 091°50'0 0.0
2016-Nov-13 03:33N 29°56' W 091°50'12 3.1
2016-Nov-12 23:33N 29°49' W 092°02'12 6.2
2016-Nov-12 21:34N 29°43' W 092°15'10 5.0
2016-Nov-12 19:32N 29°33' W 092°18'19 0.5
2016-Nov-11 06:09N 29°15' W 092°24'610.9
2016-Nov-11 05:33N 29°21' W 092°23'10 9.7
2016-Nov-11 04:33N 29°30' W 092°19'4 3.7
2016-Nov-11 03:33N 29°34' W 092°18'6 5.7
2016-Nov-11 02:33N 29°39' W 092°16'6 6.1
2016-Nov-11 01:33N 29°45' W 092°13'6 5.8
2016-Nov-11 00:33N 29°47' W 092°07'6 6.2
2016-Nov-10 23:33N 29°50' W 092°00'6 6.3
2016-Nov-10 22:33N 29°51' W 091°53'6 2.4
2016-Nov-10 20:10N 29°56' W 091°50'0 0.0
2016-Nov-10 18:28N 29°56' W 091°50'0 0.0
2016-Nov-10 16:22N 29°56' W 091°50'12 2.5
2016-Nov-10 11:33N 29°49' W 092°02'7 6.6
2016-Nov-10 10:33N 29°47' W 092°09'6 6.3
2016-Nov-10 09:33N 29°43' W 092°15'5 5.5
2016-Nov-10 08:33N 29°38' W 092°16'5 4.4
2016-Nov-10 07:29N 29°33' W 092°18'3 3.0
2016-Nov-10 06:26N 29°30' W 092°19'  
2016-Nov-08 00:33N 29°42' W 092°15'5 5.3
2016-Nov-07 23:33N 29°46' W 092°11'21 4.9
2016-Nov-07 19:20N 29°56' W 091°50'0 0.0
2016-Nov-07 17:32N 29°56' W 091°50'0 0.0
2016-Nov-07 16:32N 29°56' W 091°50'0 0.0
2016-Nov-07 15:32N 29°56' W 091°50'0 0.0
2016-Nov-07 14:26N 29°56' W 091°50'0 0.0
2016-Nov-07 13:29N 29°56' W 091°50'0 0.0
2016-Nov-07 09:32N 29°56' W 091°50'0 0.0
2016-Nov-07 07:29N 29°56' W 091°50'0 0.0
2016-Nov-07 06:26N 29°56' W 091°50'0 0.0
2016-Nov-07 05:32N 29°56' W 091°50'0 0.0
2016-Nov-07 02:32N 29°56' W 091°50'0 0.0
2016-Nov-07 01:32N 29°56' W 091°50'0 0.0
2016-Nov-06 22:29N 29°56' W 091°50'0 0.0
2016-Nov-06 20:32N 29°56' W 091°50'0 0.0
2016-Nov-06 19:32N 29°56' W 091°50'0 0.0
2016-Nov-06 17:32N 29°56' W 091°50'0 0.0
2016-Nov-06 15:29N 29°56' W 091°50'  
Track history (hours):
 
Tides and Currents Weather Stations Pressure Air Temp Water Temp Dewpoint Dewpoint Depression Visibility Wind Speed Wind Dir Waves Ship Positions

Royal

Owner: GulfMark Americas, Inc., Saint Rose, LA. More information available from US FCC via Universal Licensing System and Coast Guard Vessel Documentation Center.

Last reported at 2016-Nov-16 12:22 UTC. Time now 2016-Dec-05 12:37 UTC.
Position N 29°32' W 092°18'.
Warning: this ship's position is 19 days out of date.

Length 64 m; draft 3 m.

Type: Cargo ship. MMSI: 366964490.

Date/timePositionNaut miles runAvg speedWind from/ knotsBaromVisibWave heightAir tempDewpointWater temp
2016-Nov-16 12:22N 29°32' W 092°18'13 4.8
2016-Nov-16 09:33N 29°45' W 092°13'3 3.4
2016-Nov-16 08:34N 29°47' W 092°10'7 6.6
2016-Nov-16 07:33N 29°49' W 092°03'7 6.6
2016-Nov-16 06:33N 29°51' W 091°55'7 3.3
2016-Nov-16 04:32N 29°56' W 091°50'0 0.0
2016-Nov-16 03:23N 29°56' W 091°50'0 0.0
2016-Nov-16 02:32N 29°56' W 091°50'0 0.0
2016-Nov-16 01:32N 29°56' W 091°50'5 1.3
2016-Nov-15 21:33N 29°51' W 091°52'13 6.4
2016-Nov-15 19:33N 29°48' W 092°06'6 6.3
2016-Nov-15 18:33N 29°45' W 092°13'  
2016-Nov-13 13:33N 29°31' W 092°19'13 4.2
2016-Nov-13 10:33N 29°43' W 092°15'11 5.5
2016-Nov-13 08:33N 29°49' W 092°04'14 4.4
2016-Nov-13 05:30N 29°56' W 091°50'0 0.0
2016-Nov-13 03:33N 29°56' W 091°50'12 3.1
2016-Nov-12 23:33N 29°49' W 092°02'12 6.2
2016-Nov-12 21:34N 29°43' W 092°15'10 5.0
2016-Nov-12 19:32N 29°33' W 092°18'19 0.5
2016-Nov-11 06:09N 29°15' W 092°24'610.9
2016-Nov-11 05:33N 29°21' W 092°23'10 9.7
2016-Nov-11 04:33N 29°30' W 092°19'4 3.7
2016-Nov-11 03:33N 29°34' W 092°18'6 5.7
2016-Nov-11 02:33N 29°39' W 092°16'6 6.1
2016-Nov-11 01:33N 29°45' W 092°13'6 5.8
2016-Nov-11 00:33N 29°47' W 092°07'6 6.2
2016-Nov-10 23:33N 29°50' W 092°00'6 6.3
2016-Nov-10 22:33N 29°51' W 091°53'6 2.4
2016-Nov-10 20:10N 29°56' W 091°50'0 0.0
2016-Nov-10 18:28N 29°56' W 091°50'0 0.0
2016-Nov-10 16:22N 29°56' W 091°50'12 2.5
2016-Nov-10 11:33N 29°49' W 092°02'7 6.6
2016-Nov-10 10:33N 29°47' W 092°09'6 6.3
2016-Nov-10 09:33N 29°43' W 092°15'5 5.5
2016-Nov-10 08:33N 29°38' W 092°16'5 4.4
2016-Nov-10 07:29N 29°33' W 092°18'3 3.0
2016-Nov-10 06:26N 29°30' W 092°19'  
2016-Nov-08 00:33N 29°42' W 092°15'5 5.3
2016-Nov-07 23:33N 29°46' W 092°11'21 4.9
2016-Nov-07 19:20N 29°56' W 091°50'0 0.0
2016-Nov-07 17:32N 29°56' W 091°50'0 0.0
2016-Nov-07 16:32N 29°56' W 091°50'0 0.0
2016-Nov-07 15:32N 29°56' W 091°50'0 0.0
2016-Nov-07 14:26N 29°56' W 091°50'0 0.0
2016-Nov-07 13:29N 29°56' W 091°50'0 0.0
2016-Nov-07 09:32N 29°56' W 091°50'0 0.0
2016-Nov-07 07:29N 29°56' W 091°50'0 0.0
2016-Nov-07 06:26N 29°56' W 091°50'0 0.0
2016-Nov-07 05:32N 29°56' W 091°50'0 0.0
2016-Nov-07 02:32N 29°56' W 091°50'0 0.0
2016-Nov-07 01:32N 29°56' W 091°50'0 0.0
2016-Nov-06 22:29N 29°56' W 091°50'0 0.0
2016-Nov-06 20:32N 29°56' W 091°50'0 0.0
2016-Nov-06 19:32N 29°56' W 091°50'0 0.0
2016-Nov-06 17:32N 29°56' W 091°50'0 0.0
2016-Nov-06 15:29N 29°56' W 091°50'  

Dump ship's entire track history